createdAt,value
2022-08-09T00:00:20.925Z,0.00
2022-08-09T00:01:20.967Z,0.00
2022-08-09T00:02:20.778Z,0.00
2022-08-09T00:04:05.506Z,0.00
2022-08-09T00:04:34.863Z,0.00
2022-08-09T00:06:17.933Z,0.00
2022-08-09T00:06:22.561Z,0.00
2022-08-09T00:07:20.406Z,0.00
2022-08-09T00:08:31.980Z,0.00
2022-08-09T00:09:21.042Z,0.00
2022-08-09T00:10:21.339Z,0.00
2022-08-09T00:11:24.843Z,0.00
2022-08-09T00:12:22.639Z,0.00
2022-08-09T00:13:19.958Z,0.00
2022-08-09T00:14:22.080Z,0.00
2022-08-09T00:15:19.815Z,0.00
2022-08-09T00:16:26.150Z,0.00
2022-08-09T00:18:04.539Z,0.00
2022-08-09T00:18:19.584Z,0.00
2022-08-09T00:19:19.512Z,0.00
2022-08-09T00:20:19.438Z,0.00
2022-08-09T00:21:19.363Z,0.00
2022-08-09T00:22:19.294Z,0.00
2022-08-09T00:23:57.030Z,0.00
2022-08-09T00:24:19.867Z,0.00
2022-08-09T00:25:23.066Z,0.00
2022-08-09T00:26:18.986Z,0.00
2022-08-09T00:27:18.923Z,0.00
2022-08-09T00:28:18.844Z,0.00
2022-08-09T00:30:09.776Z,0.00
2022-08-09T00:30:25.691Z,0.00
2022-08-09T00:31:55.782Z,0.00
2022-08-09T00:32:25.376Z,0.00
2022-08-09T00:33:18.463Z,0.00
2022-08-09T00:34:19.159Z,0.00
2022-08-09T00:35:18.320Z,0.00
2022-08-09T00:36:18.246Z,0.00
2022-08-09T00:37:18.164Z,0.00
2022-08-09T00:38:21.383Z,0.00
2022-08-09T00:40:12.188Z,0.00
2022-08-09T00:40:19.870Z,0.00
2022-08-09T00:44:08.006Z,0.00
2022-08-09T00:44:16.133Z,0.00
2022-08-09T00:44:16.911Z,0.00
2022-08-09T00:44:25.735Z,0.00
2022-08-09T00:45:17.568Z,0.00
2022-08-09T00:46:55.965Z,0.00
2022-08-09T00:47:17.417Z,0.00
2022-08-09T00:48:19.459Z,0.00
2022-08-09T00:49:17.267Z,0.00
2022-08-09T00:50:17.198Z,0.00
2022-08-09T00:51:17.120Z,0.00
2022-08-09T00:52:17.731Z,0.00
2022-08-09T00:53:16.969Z,0.00
2022-08-09T00:54:16.891Z,0.00
2022-08-09T00:56:03.326Z,0.00
2022-08-09T00:56:16.742Z,0.00
2022-08-09T00:57:24.666Z,0.00
2022-08-09T00:58:25.472Z,0.00
2022-08-09T00:59:40.302Z,0.00
2022-08-09T01:00:21.609Z,0.00
2022-08-09T01:01:16.492Z,0.00
2022-08-09T01:02:16.294Z,0.00
2022-08-09T01:03:16.219Z,0.00
2022-08-09T01:04:16.145Z,0.00
2022-08-09T01:05:21.747Z,0.00
2022-08-09T01:06:18.411Z,0.00
2022-08-09T01:07:15.922Z,0.00
2022-08-09T01:08:16.276Z,0.00
2022-08-09T01:09:15.768Z,0.00
2022-08-09T01:10:15.702Z,0.00
2022-08-09T01:11:15.621Z,0.00
2022-08-09T01:12:15.590Z,0.00
2022-08-09T01:13:16.911Z,0.00
2022-08-09T01:14:15.397Z,0.00
2022-08-09T01:15:17.659Z,0.00
2022-08-09T01:16:15.244Z,0.00
2022-08-09T01:17:16.077Z,0.00
2022-08-09T01:18:15.090Z,0.00
2022-08-09T01:19:17.177Z,0.00
2022-08-09T01:20:14.943Z,0.00
2022-08-09T01:21:14.871Z,0.00
2022-08-09T01:22:16.638Z,0.00
2022-08-09T01:24:00.890Z,0.00
2022-08-09T01:24:14.649Z,0.00
2022-08-09T01:25:14.569Z,0.00
2022-08-09T01:26:14.491Z,0.00
2022-08-09T01:27:14.412Z,0.00
2022-08-09T01:28:14.342Z,0.00
2022-08-09T01:29:15.462Z,0.00
2022-08-09T01:30:35.458Z,0.00
2022-08-09T01:31:40.890Z,0.00
2022-08-09T01:32:29.189Z,0.00
2022-08-09T01:33:13.960Z,0.00
2022-08-09T01:34:13.902Z,0.00
2022-08-09T01:35:28.434Z,0.00
2022-08-09T01:36:13.735Z,0.00
2022-08-09T01:37:13.662Z,0.00
2022-08-09T01:38:15.471Z,0.00
2022-08-09T01:39:13.543Z,0.00
2022-08-09T01:40:13.435Z,0.00
2022-08-09T01:41:13.368Z,0.00
2022-08-09T01:42:13.284Z,0.00
2022-08-09T01:43:13.211Z,0.00
2022-08-09T01:44:13.132Z,0.00
2022-08-09T01:45:13.059Z,0.00
2022-08-09T01:46:24.027Z,0.00
2022-08-09T01:47:12.907Z,0.00
2022-08-09T01:48:12.831Z,0.00
2022-08-09T01:49:14.845Z,0.00
2022-08-09T01:50:12.687Z,0.00
2022-08-09T01:51:12.599Z,0.00
2022-08-09T01:52:12.524Z,0.00
2022-08-09T01:53:20.020Z,0.00
2022-08-09T01:54:12.372Z,0.00
2022-08-09T01:55:12.296Z,0.00
2022-08-09T01:56:12.228Z,0.00
2022-08-09T01:57:12.150Z,0.00
2022-08-09T01:58:12.070Z,0.00
2022-08-09T01:59:16.089Z,0.00
2022-08-09T02:00:34.570Z,0.00
2022-08-09T02:01:11.931Z,0.00
2022-08-09T02:02:11.820Z,0.00
2022-08-09T02:03:13.843Z,0.00
2022-08-09T02:04:11.613Z,0.00
2022-08-09T02:05:15.541Z,0.00
2022-08-09T02:06:11.468Z,0.00
2022-08-09T02:07:15.593Z,0.00
2022-08-09T02:08:39.642Z,0.00
2022-08-09T02:09:11.245Z,0.00
2022-08-09T02:11:43.887Z,0.00
2022-08-09T02:12:42.613Z,0.00
2022-08-09T02:14:46.446Z,0.00
2022-08-09T02:15:49.220Z,0.00
2022-08-09T02:18:09.412Z,0.00
2022-08-09T02:18:50.123Z,0.00
2022-08-09T02:20:53.948Z,0.00
2022-08-09T02:21:55.205Z,0.00
2022-08-09T02:23:57.708Z,0.00
2022-08-09T02:24:57.610Z,0.00
2022-08-09T02:27:01.456Z,0.00
2022-08-09T02:28:04.063Z,0.00
2022-08-09T02:30:05.189Z,0.00
2022-08-09T02:31:05.824Z,0.00
2022-08-09T02:33:14.198Z,0.00
2022-08-09T02:34:13.179Z,0.00
2022-08-09T02:36:12.675Z,0.00
2022-08-09T02:37:12.589Z,0.00
2022-08-09T02:39:33.593Z,0.00
2022-08-09T02:40:18.523Z,0.00
2022-08-09T02:42:20.176Z,0.00
2022-08-09T02:43:20.086Z,0.00
2022-08-09T02:45:26.650Z,0.00
2022-08-09T02:46:23.836Z,0.00
2022-08-09T02:48:31.131Z,0.00
2022-08-09T02:49:27.592Z,0.00
2022-08-09T02:51:20.356Z,0.00
2022-08-09T02:52:20.260Z,0.00
2022-08-09T02:54:24.089Z,0.00
2022-08-09T02:55:24.009Z,0.00
2022-08-09T02:57:27.856Z,0.00
2022-08-09T02:58:36.082Z,0.00
2022-08-09T03:00:31.645Z,0.00
2022-08-09T03:01:43.341Z,0.00
2022-08-09T03:03:37.174Z,0.00
2022-08-09T03:04:35.247Z,0.00
2022-08-09T03:06:39.063Z,0.00
2022-08-09T03:07:38.980Z,0.00
2022-08-09T03:09:43.276Z,0.00
2022-08-09T03:10:43.846Z,0.00
2022-08-09T03:12:49.467Z,0.00
2022-08-09T03:13:59.618Z,0.00
2022-08-09T03:16:06.037Z,0.00
2022-08-09T03:16:50.225Z,0.00
2022-08-09T03:18:55.698Z,0.00
2022-08-09T03:20:02.742Z,0.00
2022-08-09T03:21:48.561Z,0.00
2022-08-09T03:22:46.889Z,0.00
2022-08-09T03:24:52.485Z,0.00
2022-08-09T03:25:56.979Z,0.00
2022-08-09T03:27:55.193Z,4.00
2022-08-09T03:28:55.086Z,4.00
2022-08-09T03:30:58.000Z,4.00
2022-08-09T03:32:00.474Z,4.00
2022-08-09T03:34:01.734Z,0.00
2022-08-09T03:35:01.652Z,4.00
2022-08-09T03:37:56.662Z,4.00
2022-08-09T03:38:05.398Z,8.00
2022-08-09T03:40:09.463Z,12.00
2022-08-09T03:41:09.146Z,12.00
2022-08-09T03:43:12.976Z,16.00
2022-08-09T03:44:12.898Z,20.00
2022-08-09T03:46:20.132Z,24.00
2022-08-09T03:47:16.640Z,32.00
2022-08-09T03:49:21.267Z,36.00
2022-08-09T03:50:27.871Z,44.00
2022-08-09T03:52:24.233Z,52.00
2022-08-09T03:53:24.130Z,56.00
2022-08-09T03:55:30.110Z,72.00
2022-08-09T03:56:27.893Z,76.00
2022-08-09T03:57:27.817Z,84.00
2022-08-09T03:58:27.741Z,92.00
2022-08-09T03:59:42.813Z,100.00
2022-08-09T04:00:27.639Z,112.00
2022-08-09T04:01:27.509Z,116.00
2022-08-09T04:02:30.314Z,124.00
2022-08-09T04:03:45.859Z,136.00
2022-08-09T04:04:27.284Z,144.00
2022-08-09T04:05:27.772Z,156.00
2022-08-09T04:06:27.132Z,164.00
2022-08-09T04:07:53.436Z,172.00
2022-08-09T04:09:47.655Z,196.00
2022-08-09T04:10:30.822Z,204.00
2022-08-09T04:12:35.140Z,228.00
2022-08-09T04:14:36.779Z,240.00
2022-08-09T04:16:17.824Z,264.00
2022-08-09T04:16:38.813Z,276.00
2022-08-09T04:18:32.079Z,300.00
2022-08-09T04:19:50.764Z,312.00
2022-08-09T04:21:40.106Z,340.00
2022-08-09T04:22:35.761Z,352.00
2022-08-09T04:24:39.611Z,376.00
2022-08-09T04:25:39.516Z,388.00
2022-08-09T04:27:49.159Z,412.00
2022-08-09T04:28:46.934Z,428.00
2022-08-09T04:30:47.618Z,452.00
2022-08-09T04:31:47.779Z,460.00
2022-08-09T04:33:56.543Z,484.00
2022-08-09T04:34:54.254Z,496.00
2022-08-09T04:36:55.631Z,520.00
2022-08-09T04:37:55.545Z,528.00
2022-08-09T04:39:59.394Z,548.00
2022-08-09T04:40:59.302Z,556.00
2022-08-09T04:43:03.570Z,580.00
2022-08-09T04:44:06.665Z,592.00
2022-08-09T04:46:06.935Z,616.00
2022-08-09T04:47:06.842Z,624.00
2022-08-09T04:48:59.656Z,644.00
2022-08-09T04:49:59.548Z,656.00
2022-08-09T04:52:03.376Z,676.00
2022-08-09T04:53:03.301Z,684.00
2022-08-09T04:54:03.226Z,696.00
2022-08-09T04:55:04.678Z,704.00
2022-08-09T04:56:03.071Z,720.00
2022-08-09T04:57:03.912Z,728.00
2022-08-09T04:58:09.707Z,736.00
2022-08-09T04:59:07.702Z,748.00
2022-08-09T05:00:02.843Z,760.00
2022-08-09T05:01:02.688Z,768.00
2022-08-09T05:02:03.004Z,780.00
2022-08-09T05:03:12.750Z,788.00
2022-08-09T05:04:02.970Z,796.00
2022-08-09T05:05:10.288Z,808.00
2022-08-09T05:07:06.238Z,824.00
2022-08-09T05:08:06.132Z,836.00
2022-08-09T05:09:06.055Z,844.00
2022-08-09T05:10:05.982Z,848.00
2022-08-09T05:11:07.564Z,860.00
2022-08-09T05:12:05.834Z,868.00
2022-08-09T05:13:05.752Z,876.00
2022-08-09T05:14:06.695Z,884.00
2022-08-09T05:15:11.525Z,884.00
2022-08-09T05:16:05.518Z,896.00
2022-08-09T05:17:05.450Z,908.00
2022-08-09T05:18:55.366Z,912.00
2022-08-09T05:19:05.297Z,920.00
2022-08-09T05:20:05.219Z,928.00
2022-08-09T05:21:10.031Z,932.00
2022-08-09T05:22:05.068Z,940.00
2022-08-09T05:23:54.541Z,944.00
2022-08-09T05:24:05.231Z,952.00
2022-08-09T05:25:04.834Z,956.00
2022-08-09T05:26:04.761Z,964.00
2022-08-09T05:27:04.679Z,968.00
2022-08-09T05:28:04.609Z,972.00
2022-08-09T05:29:04.540Z,980.00
2022-08-09T05:30:04.454Z,988.00
2022-08-09T05:31:09.395Z,988.00
2022-08-09T05:32:05.783Z,996.00
2022-08-09T05:33:04.228Z,996.00
2022-08-09T05:34:04.148Z,1004.00
2022-08-09T05:35:04.075Z,1008.00
2022-08-09T05:36:03.993Z,1016.00
2022-08-09T05:37:04.908Z,1020.00
2022-08-09T05:38:03.838Z,1024.00
2022-08-09T05:39:03.817Z,1028.00
2022-08-09T05:40:03.696Z,1036.00
2022-08-09T05:41:03.616Z,704.00
2022-08-09T05:42:04.690Z,1044.00
2022-08-09T05:43:03.462Z,1052.00
2022-08-09T05:44:03.393Z,1052.00
2022-08-09T05:45:03.322Z,1060.00
2022-08-09T05:46:03.229Z,1064.00
2022-08-09T05:47:05.464Z,908.00
2022-08-09T05:48:03.086Z,1072.00
2022-08-09T05:49:03.004Z,1076.00
2022-08-09T05:50:23.375Z,1084.00
2022-08-09T05:51:42.547Z,1076.00
2022-08-09T05:52:02.809Z,1088.00
2022-08-09T05:53:02.712Z,1036.00
2022-08-09T05:54:02.629Z,1100.00
2022-08-09T05:55:03.265Z,1096.00
2022-08-09T05:56:02.476Z,904.00
2022-08-09T05:57:02.396Z,904.00
2022-08-09T05:58:02.322Z,1116.00
2022-08-09T05:59:02.248Z,1120.00
2022-08-09T06:00:02.264Z,1128.00
2022-08-09T06:01:02.093Z,1132.00
2022-08-09T06:02:02.122Z,1136.00
2022-08-09T06:03:02.008Z,1140.00
2022-08-09T06:04:01.913Z,1144.00
2022-08-09T06:05:01.795Z,1148.00
2022-08-09T06:06:05.951Z,1152.00
2022-08-09T06:07:01.651Z,1156.00
2022-08-09T06:08:05.317Z,1164.00
2022-08-09T06:09:01.492Z,1172.00
2022-08-09T06:10:02.970Z,1176.00
2022-08-09T06:11:01.337Z,1180.00
2022-08-09T06:12:01.259Z,1184.00
2022-08-09T06:13:03.114Z,1192.00
2022-08-09T06:14:01.110Z,1192.00
2022-08-09T06:15:02.249Z,1200.00
2022-08-09T06:16:01.538Z,1204.00
2022-08-09T06:17:00.882Z,1204.00
2022-08-09T06:18:00.814Z,1208.00
2022-08-09T06:19:00.728Z,1212.00
2022-08-09T06:20:00.658Z,1216.00
2022-08-09T06:21:00.576Z,1220.00
2022-08-09T06:22:00.500Z,1224.00
2022-08-09T06:23:00.428Z,1224.00
2022-08-09T06:24:02.258Z,1228.00
2022-08-09T06:25:00.278Z,1232.00
2022-08-09T06:26:00.202Z,1236.00
2022-08-09T06:27:00.123Z,1240.00
2022-08-09T06:28:00.050Z,1244.00
2022-08-09T06:29:04.748Z,1248.00
2022-08-09T06:30:08.884Z,1248.00
2022-08-09T06:30:59.819Z,1252.00
2022-08-09T06:32:08.600Z,1252.00
2022-08-09T06:33:30.452Z,1256.00
2022-08-09T06:33:59.595Z,1260.00
2022-08-09T06:34:59.520Z,1264.00
2022-08-09T06:35:59.443Z,1264.00
2022-08-09T06:37:00.119Z,1268.00
2022-08-09T06:38:05.740Z,1272.00
2022-08-09T06:38:59.214Z,1272.00
2022-08-09T06:40:00.153Z,1276.00
2022-08-09T06:40:59.070Z,1280.00
2022-08-09T06:42:09.381Z,1280.00
2022-08-09T06:42:58.916Z,1284.00
2022-08-09T06:43:58.844Z,1288.00
2022-08-09T06:44:58.768Z,1288.00
2022-08-09T06:46:06.556Z,1296.00
2022-08-09T06:46:58.615Z,1296.00
2022-08-09T06:48:01.493Z,1300.00
2022-08-09T06:49:00.166Z,1300.00
2022-08-09T06:50:14.782Z,1304.00
2022-08-09T06:50:58.321Z,1308.00
2022-08-09T06:51:58.237Z,1304.00
2022-08-09T06:52:58.167Z,1312.00
2022-08-09T06:54:00.958Z,1312.00
2022-08-09T06:54:58.013Z,1316.00
2022-08-09T06:55:57.935Z,1320.00
2022-08-09T06:56:57.860Z,1320.00
2022-08-09T06:58:03.326Z,1324.00
2022-08-09T07:00:49.910Z,1328.00
2022-08-09T07:00:51.876Z,1328.00
2022-08-09T07:00:59.685Z,1336.00
2022-08-09T07:01:59.490Z,1340.00
2022-08-09T07:02:57.412Z,1340.00
2022-08-09T07:04:00.693Z,1344.00
2022-08-09T07:04:57.256Z,1348.00
2022-08-09T07:06:03.978Z,1352.00
2022-08-09T07:07:00.328Z,1360.00
2022-08-09T07:08:00.449Z,1364.00
2022-08-09T07:08:56.961Z,1368.00
2022-08-09T07:10:12.661Z,1372.00
2022-08-09T07:10:56.808Z,1376.00
2022-08-09T07:11:56.737Z,1376.00
2022-08-09T07:12:57.122Z,1384.00
2022-08-09T07:14:05.121Z,1384.00
2022-08-09T07:14:56.512Z,1388.00
2022-08-09T07:16:43.361Z,1392.00
2022-08-09T07:16:58.287Z,1380.00
2022-08-09T07:18:02.459Z,1396.00
2022-08-09T07:18:56.210Z,1396.00
2022-08-09T07:19:56.135Z,1404.00
2022-08-09T07:20:56.062Z,1408.00
2022-08-09T07:21:57.749Z,1400.00
2022-08-09T07:22:56.288Z,1408.00
2022-08-09T07:23:57.861Z,1412.00
2022-08-09T07:24:55.762Z,1412.00
2022-08-09T07:26:02.357Z,1176.00
2022-08-09T07:26:55.619Z,1176.00
2022-08-09T07:27:55.744Z,1412.00
2022-08-09T07:29:08.558Z,1420.00
2022-08-09T07:29:56.981Z,1420.00
2022-08-09T07:30:55.350Z,1424.00
2022-08-09T07:31:55.240Z,1424.00
2022-08-09T07:32:55.162Z,1428.00
2022-08-09T07:33:55.850Z,1432.00
2022-08-09T07:34:55.023Z,1428.00
2022-08-09T07:35:54.943Z,1432.00
2022-08-09T07:36:54.874Z,1436.00
2022-08-09T07:37:59.604Z,1436.00
2022-08-09T07:39:00.444Z,1440.00
2022-08-09T07:39:54.726Z,1440.00
2022-08-09T07:41:11.677Z,1440.00
2022-08-09T07:41:54.497Z,1440.00
2022-08-09T07:42:54.899Z,1448.00
2022-08-09T07:43:56.433Z,1452.00
2022-08-09T07:44:57.296Z,1448.00
2022-08-09T07:45:54.194Z,1452.00
2022-08-09T07:46:54.119Z,1452.00
2022-08-09T07:48:01.530Z,1452.00
2022-08-09T07:48:59.401Z,1452.00
2022-08-09T07:50:07.950Z,1452.00
2022-08-09T07:51:09.061Z,1456.00
2022-08-09T07:52:04.384Z,1456.00
2022-08-09T07:52:53.673Z,1460.00
2022-08-09T07:54:05.593Z,1464.00
2022-08-09T07:54:53.554Z,1464.00
2022-08-09T07:56:03.525Z,1468.00
2022-08-09T07:56:53.376Z,1472.00
2022-08-09T07:57:53.305Z,1472.00
2022-08-09T07:58:53.237Z,1476.00
2022-08-09T08:00:02.698Z,1472.00
2022-08-09T08:00:58.640Z,1472.00
2022-08-09T08:01:53.574Z,1476.00
2022-08-09T08:02:52.940Z,1480.00
2022-08-09T08:03:52.877Z,1480.00
2022-08-09T08:04:53.874Z,1488.00
2022-08-09T08:05:58.014Z,1488.00
2022-08-09T08:06:55.734Z,1492.00
2022-08-09T08:08:44.195Z,1492.00
2022-08-09T08:09:01.507Z,1492.00
2022-08-09T08:10:04.617Z,1492.00
2022-08-09T08:12:07.735Z,1496.00
2022-08-09T08:12:24.034Z,1492.00
2022-08-09T08:12:52.193Z,1496.00
2022-08-09T08:13:56.307Z,1500.00
2022-08-09T08:14:52.056Z,1508.00
2022-08-09T08:15:51.972Z,1512.00
2022-08-09T08:17:00.644Z,1512.00
2022-08-09T08:17:52.876Z,1516.00
2022-08-09T08:18:51.757Z,1524.00
2022-08-09T08:19:51.679Z,1528.00
2022-08-09T08:20:51.605Z,1532.00
2022-08-09T08:21:52.915Z,1528.00
2022-08-09T08:22:51.456Z,1532.00
2022-08-09T08:23:55.930Z,1532.00
2022-08-09T08:24:51.309Z,1532.00
2022-08-09T08:26:06.607Z,1532.00
2022-08-09T08:26:56.036Z,1532.00
2022-08-09T08:27:51.090Z,1540.00
2022-08-09T08:28:51.017Z,1544.00
2022-08-09T08:29:52.330Z,1540.00
2022-08-09T08:30:50.865Z,1532.00
2022-08-09T08:32:03.816Z,1536.00
2022-08-09T08:32:52.547Z,1544.00
2022-08-09T08:33:53.521Z,1548.00
2022-08-09T08:34:51.951Z,1556.00
2022-08-09T08:35:59.734Z,1560.00
2022-08-09T08:36:50.423Z,1572.00
2022-08-09T08:37:59.499Z,1576.00
2022-08-09T08:38:50.285Z,1588.00
2022-08-09T08:39:50.252Z,1584.00
2022-08-09T08:40:50.136Z,1588.00
2022-08-09T08:41:51.740Z,1596.00
2022-08-09T08:42:49.984Z,1604.00
2022-08-09T08:43:49.913Z,1608.00
2022-08-09T08:44:49.838Z,1612.00
2022-08-09T08:45:53.208Z,1620.00
2022-08-09T08:47:02.406Z,1624.00
2022-08-09T08:47:49.622Z,1620.00
2022-08-09T08:48:51.085Z,1620.00
2022-08-09T08:49:49.589Z,1628.00
2022-08-09T08:50:51.992Z,1636.00
2022-08-09T08:52:01.930Z,1656.00
2022-08-09T08:52:57.550Z,1668.00
2022-08-09T08:54:03.379Z,1668.00
2022-08-09T08:54:49.110Z,1668.00
2022-08-09T08:55:49.033Z,1668.00
2022-08-09T08:56:48.958Z,1696.00
2022-08-09T08:57:57.453Z,1704.00
2022-08-09T08:58:48.809Z,1696.00
2022-08-09T08:59:49.125Z,1704.00
2022-08-09T09:00:54.262Z,1696.00
2022-08-09T09:01:52.648Z,1696.00
2022-08-09T09:02:52.259Z,1696.00
2022-08-09T09:03:50.403Z,1708.00
2022-08-09T09:04:53.172Z,1736.00
2022-08-09T09:06:03.072Z,1920.00
2022-08-09T09:06:48.227Z,1956.00
2022-08-09T09:07:48.156Z,1932.00
2022-08-09T09:08:52.624Z,1888.00
2022-08-09T09:10:02.377Z,1828.00
2022-08-09T09:10:47.938Z,1780.00
2022-08-09T09:11:47.859Z,1748.00
2022-08-09T09:12:47.791Z,1688.00
2022-08-09T09:13:56.348Z,1708.00
2022-08-09T09:14:47.641Z,1704.00
2022-08-09T09:15:49.078Z,1712.00
2022-08-09T09:16:47.494Z,1724.00
2022-08-09T09:17:49.528Z,1732.00
2022-08-09T09:18:54.858Z,1732.00
2022-08-09T09:19:47.278Z,1752.00
2022-08-09T09:20:47.211Z,1792.00
2022-08-09T09:21:47.130Z,1792.00
2022-08-09T09:22:47.062Z,1744.00
2022-08-09T09:23:49.930Z,1724.00
2022-08-09T09:24:46.910Z,1716.00
2022-08-09T09:26:03.746Z,1712.00
2022-08-09T09:26:46.768Z,1712.00
2022-08-09T09:28:06.087Z,1712.00
2022-08-09T09:29:03.313Z,1712.00
2022-08-09T09:30:14.129Z,1708.00
2022-08-09T09:30:47.352Z,1712.00
2022-08-09T09:32:04.421Z,1716.00
2022-08-09T09:32:46.329Z,1716.00
2022-08-09T09:33:46.257Z,1712.00
2022-08-09T09:34:46.182Z,1708.00
2022-08-09T09:35:48.031Z,1708.00
2022-08-09T09:36:53.155Z,1700.00
2022-08-09T09:37:45.967Z,1708.00
2022-08-09T09:38:45.891Z,1720.00
2022-08-09T09:39:54.736Z,1728.00
2022-08-09T09:40:46.353Z,1732.00
2022-08-09T09:41:49.119Z,1732.00
2022-08-09T09:42:46.229Z,1736.00
2022-08-09T09:44:12.463Z,1732.00
2022-08-09T09:44:45.454Z,1724.00
2022-08-09T09:46:41.737Z,1724.00
2022-08-09T09:46:50.675Z,1732.00
2022-08-09T09:47:56.355Z,1732.00
2022-08-09T09:48:45.167Z,1732.00
2022-08-09T09:50:07.167Z,1736.00
2022-08-09T09:50:49.568Z,1740.00
2022-08-09T09:51:47.919Z,1744.00
2022-08-09T09:52:53.608Z,1756.00
2022-08-09T09:54:00.821Z,1768.00
2022-08-09T09:54:48.740Z,1780.00
2022-08-09T09:55:44.655Z,1788.00
2022-08-09T09:58:00.499Z,1796.00
2022-08-09T09:58:04.268Z,1800.00
2022-08-09T09:58:44.434Z,1808.00
2022-08-09T09:59:44.363Z,1824.00
2022-08-09T10:00:44.287Z,1832.00
2022-08-09T10:01:44.215Z,1836.00
2022-08-09T10:02:44.151Z,1848.00
2022-08-09T10:03:44.860Z,1856.00
2022-08-09T10:04:44.000Z,1868.00
2022-08-09T10:06:03.647Z,1872.00
2022-08-09T10:06:47.224Z,1880.00
2022-08-09T10:08:11.046Z,1888.00
2022-08-09T10:08:55.144Z,1904.00
2022-08-09T10:09:45.925Z,1920.00
2022-08-09T10:10:43.563Z,1924.00
2022-08-09T10:11:59.948Z,1936.00
2022-08-09T10:12:43.557Z,1948.00
2022-08-09T10:13:45.468Z,1952.00
2022-08-09T10:14:48.286Z,1964.00
2022-08-09T10:16:09.660Z,1984.00
2022-08-09T10:16:56.998Z,1996.00
2022-08-09T10:17:55.709Z,2012.00
2022-08-09T10:18:42.984Z,2012.00
2022-08-09T10:19:42.911Z,2024.00
2022-08-09T10:20:44.830Z,2028.00
2022-08-09T10:21:42.763Z,2044.00
2022-08-09T10:22:42.941Z,2040.00
2022-08-09T10:23:42.620Z,2056.00
2022-08-09T10:24:42.548Z,2068.00
2022-08-09T10:26:07.754Z,2080.00
2022-08-09T10:26:42.401Z,2088.00
2022-08-09T10:27:45.501Z,2096.00
2022-08-09T10:28:44.109Z,2124.00
2022-08-09T10:30:41.953Z,2160.00
2022-08-09T10:32:21.038Z,2188.00
2022-08-09T10:32:42.574Z,2272.00
2022-08-09T10:34:08.173Z,2308.00
2022-08-09T10:34:41.835Z,2332.00
2022-08-09T10:35:41.754Z,2352.00
2022-08-09T10:36:42.104Z,2372.00
2022-08-09T10:37:42.097Z,2396.00
2022-08-09T10:38:57.110Z,2408.00
2022-08-09T10:39:49.126Z,2420.00
2022-08-09T10:40:41.407Z,2432.00
2022-08-09T10:41:42.179Z,2444.00
2022-08-09T10:42:41.244Z,2448.00
2022-08-09T10:43:53.872Z,2472.00
2022-08-09T10:44:41.100Z,2476.00
2022-08-09T10:45:49.324Z,2504.00
2022-08-09T10:46:54.503Z,2516.00
2022-08-09T10:48:16.387Z,2528.00
2022-08-09T10:48:40.810Z,2544.00
2022-08-09T10:49:50.150Z,2572.00
2022-08-09T10:50:40.668Z,2592.00
2022-08-09T10:51:41.297Z,2600.00
2022-08-09T10:52:42.987Z,2620.00
2022-08-09T10:53:46.914Z,2640.00
2022-08-09T10:54:40.379Z,2636.00
2022-08-09T10:55:58.795Z,2652.00
2022-08-09T10:56:40.235Z,2664.00
2022-08-09T10:57:41.840Z,2676.00
2022-08-09T10:58:40.094Z,2704.00
2022-08-09T10:59:53.743Z,2720.00
2022-08-09T11:00:41.807Z,2736.00
2022-08-09T11:03:15.622Z,2760.00
2022-08-09T11:03:15.934Z,2748.00
2022-08-09T11:03:49.627Z,2784.00
2022-08-09T11:04:55.576Z,2796.00
2022-08-09T11:05:39.629Z,2828.00
2022-08-09T11:06:46.735Z,2848.00
2022-08-09T11:08:47.614Z,2884.00
2022-08-09T11:09:47.760Z,2896.00
2022-08-09T11:11:51.876Z,2928.00
2022-08-09T11:12:47.149Z,2944.00
2022-08-09T11:14:50.985Z,2972.00
2022-08-09T11:16:06.429Z,2988.00
2022-08-09T11:17:43.700Z,3020.00
2022-08-09T11:18:45.048Z,3036.00
2022-08-09T11:20:18.000Z,3044.00
2022-08-09T11:20:43.466Z,3056.00
2022-08-09T11:21:43.392Z,3076.00
2022-08-09T11:22:43.322Z,3092.00
2022-08-09T11:23:45.275Z,3096.00
2022-08-09T11:24:43.179Z,3108.00
2022-08-09T11:25:46.226Z,3104.00
2022-08-09T11:26:47.254Z,3108.00
2022-08-09T11:28:02.963Z,3120.00
2022-08-09T11:28:56.073Z,3128.00
2022-08-09T11:30:04.200Z,3148.00
2022-08-09T11:30:45.916Z,3168.00
2022-08-09T11:31:43.480Z,3172.00
2022-08-09T11:32:42.604Z,3188.00
2022-08-09T11:33:42.538Z,3200.00
2022-08-09T11:34:42.853Z,3196.00
2022-08-09T11:35:49.226Z,3208.00
2022-08-09T11:36:42.320Z,3228.00
2022-08-09T11:37:43.254Z,3240.00
2022-08-09T11:38:42.186Z,3276.00
2022-08-09T11:39:42.151Z,3288.00
2022-08-09T11:40:42.038Z,3288.00
2022-08-09T11:41:41.966Z,3328.00
2022-08-09T11:42:41.897Z,3356.00
2022-08-09T11:43:41.825Z,3372.00
2022-08-09T11:44:41.752Z,3400.00
2022-08-09T11:45:43.083Z,3404.00
2022-08-09T11:46:41.615Z,3432.00
2022-08-09T11:47:41.539Z,3448.00
2022-08-09T11:48:41.471Z,3464.00
2022-08-09T11:49:42.862Z,3472.00
2022-08-09T11:50:53.186Z,3504.00
2022-08-09T11:53:00.641Z,3616.00
2022-08-09T11:53:02.906Z,3540.00
2022-08-09T11:54:01.435Z,3560.00
2022-08-09T11:54:41.045Z,3536.00
2022-08-09T11:55:52.243Z,3548.00
2022-08-09T11:56:47.517Z,3564.00
2022-08-09T11:57:56.831Z,3596.00
2022-08-09T11:58:40.761Z,3636.00
2022-08-09T11:59:40.692Z,3660.00
2022-08-09T12:00:40.617Z,3712.00
2022-08-09T12:02:18.010Z,3744.00
2022-08-09T12:02:40.808Z,3796.00
2022-08-09T12:03:55.182Z,3848.00
2022-08-09T12:04:40.390Z,3892.00
2022-08-09T12:05:42.272Z,4016.00
2022-08-09T12:06:40.194Z,4064.00
2022-08-09T12:07:42.336Z,4100.00
2022-08-09T12:08:40.057Z,4172.00
2022-08-09T12:09:39.981Z,4152.00
2022-08-09T12:10:40.253Z,4080.00
2022-08-09T12:12:02.047Z,3984.00
2022-08-09T12:12:39.932Z,3972.00
2022-08-09T12:14:10.791Z,3976.00
2022-08-09T12:14:58.966Z,3988.00
2022-08-09T12:15:50.067Z,4004.00
2022-08-09T12:16:40.035Z,3996.00
2022-08-09T12:17:44.477Z,4076.00
2022-08-09T12:18:39.353Z,4100.00
2022-08-09T12:19:40.077Z,4228.00
2022-08-09T12:20:39.215Z,4348.00
2022-08-09T12:21:48.270Z,4408.00
2022-08-09T12:22:39.075Z,4488.00
2022-08-09T12:23:58.141Z,4612.00
2022-08-09T12:24:39.040Z,4736.00
2022-08-09T12:25:38.863Z,5068.00
2022-08-09T12:26:38.794Z,5444.00
2022-08-09T12:28:59.794Z,5236.00
2022-08-09T12:29:13.079Z,5412.00
2022-08-09T12:29:44.570Z,5636.00
2022-08-09T12:30:39.421Z,5996.00
2022-08-09T12:32:01.818Z,6324.00
2022-08-09T12:32:40.658Z,6356.00
2022-08-09T12:33:59.183Z,4616.00
2022-08-09T12:34:38.232Z,6652.00
2022-08-09T12:35:40.912Z,7900.00
2022-08-09T12:36:38.092Z,7768.00
2022-08-09T12:37:50.164Z,7292.00
2022-08-09T12:38:38.775Z,7104.00
2022-08-09T12:39:38.113Z,7548.00
2022-08-09T12:40:37.824Z,7672.00
2022-08-09T12:41:40.209Z,7972.00
2022-08-09T12:42:37.680Z,8352.00
2022-08-09T12:44:05.674Z,7840.00
2022-08-09T12:44:37.630Z,7272.00
2022-08-09T12:45:38.478Z,7144.00
2022-08-09T12:46:37.402Z,6888.00
2022-08-09T12:47:43.547Z,7020.00
2022-08-09T12:48:38.507Z,7000.00
2022-08-09T12:49:37.197Z,6996.00
2022-08-09T12:50:37.263Z,7572.00
2022-08-09T12:52:00.582Z,7980.00
2022-08-09T12:52:42.647Z,8380.00
2022-08-09T12:53:38.694Z,9632.00
2022-08-09T12:54:36.858Z,11648.00
2022-08-09T12:56:14.625Z,27072.00
2022-08-09T12:56:43.347Z,20000.00
2022-08-09T12:57:39.350Z,7868.00
2022-08-09T12:58:42.560Z,6780.00
2022-08-09T12:59:57.712Z,7076.00
2022-08-09T13:00:36.448Z,56384.00
2022-08-09T13:01:38.152Z,103904.00
2022-08-09T13:02:36.312Z,100768.00
2022-08-09T13:03:56.785Z,98368.00
2022-08-09T13:04:38.622Z,93952.00
2022-08-09T13:05:52.460Z,92224.00
2022-08-09T13:06:36.058Z,89600.00
2022-08-09T13:07:51.413Z,92064.00
2022-08-09T13:08:39.978Z,99616.00
2022-08-09T13:09:38.309Z,98592.00
2022-08-09T13:10:35.797Z,102560.00
2022-08-09T13:11:39.359Z,103520.00
2022-08-09T13:12:40.072Z,7156.00
2022-08-09T13:14:11.914Z,85824.00
2022-08-09T13:14:43.785Z,105472.00
2022-08-09T13:15:35.482Z,7488.00
2022-08-09T13:16:35.415Z,105376.00
2022-08-09T13:18:03.264Z,105536.00
2022-08-09T13:18:35.310Z,103616.00
2022-08-09T13:20:10.101Z,102592.00
2022-08-09T13:20:37.265Z,103584.00
2022-08-09T13:22:36.094Z,104896.00
2022-08-09T13:23:05.285Z,101536.00
2022-08-09T13:24:11.826Z,98624.00